sensor_id;sensor_type;location;lat;lon;timestamp;pressure;altitude;pressure_sealevel;temperature;humidity
57094;BME280;42970;50.996;3.706;2022-11-20T00:03:31;77589.09;;;-146.65;100.00
57094;BME280;42970;50.996;3.706;2022-11-20T00:06:03;77587.09;;;-146.65;100.00
57094;BME280;42970;50.996;3.706;2022-11-20T00:08:29;77593.13;;;-146.65;100.00
57094;BME280;42970;50.996;3.706;2022-11-20T00:10:54;77595.16;;;-146.65;100.00
57094;BME280;42970;50.996;3.706;2022-11-20T00:13:19;77609.28;;;-146.65;100.00
57094;BME280;42970;50.996;3.706;2022-11-20T00:15:45;77589.09;;;-146.65;100.00
57094;BME280;42970;50.996;3.706;2022-11-20T00:18:10;77601.22;;;-146.65;100.00
57094;BME280;42970;50.996;3.706;2022-11-20T00:20:35;77599.19;;;-146.65;100.00
57094;BME280;42970;50.996;3.706;2022-11-20T00:23:01;77611.31;;;-146.65;100.00
57094;BME280;42970;50.996;3.706;2022-11-20T00:25:26;77605.25;;;-146.65;100.00
57094;BME280;42970;50.996;3.706;2022-11-20T00:27:51;77607.25;;;-146.65;100.00
57094;BME280;42970;50.996;3.706;2022-11-20T00:30:16;77597.16;;;-146.65;100.00
57094;BME280;42970;50.996;3.706;2022-11-20T00:32:42;77601.22;;;-146.65;100.00
57094;BME280;42970;50.996;3.706;2022-11-20T00:35:07;77593.13;;;-146.65;100.00
57094;BME280;42970;50.996;3.706;2022-11-20T00:37:32;77599.19;;;-146.65;100.00
57094;BME280;42970;50.996;3.706;2022-11-20T00:39:58;77601.22;;;-146.65;100.00
57094;BME280;42970;50.996;3.706;2022-11-20T00:42:23;77599.19;;;-146.65;100.00
57094;BME280;42970;50.996;3.706;2022-11-20T00:44:48;77593.13;;;-146.65;100.00
57094;BME280;42970;50.996;3.706;2022-11-20T00:47:13;77603.22;;;-146.65;100.00
57094;BME280;42970;50.996;3.706;2022-11-20T00:49:39;77587.09;;;-146.65;100.00
57094;BME280;42970;50.996;3.706;2022-11-20T00:52:04;77574.97;;;-146.65;100.00
57094;BME280;42970;50.996;3.706;2022-11-20T00:54:29;77570.94;;;-146.65;100.00
57094;BME280;42970;50.996;3.706;2022-11-20T00:56:55;77587.09;;;-146.65;100.00
57094;BME280;42970;50.996;3.706;2022-11-20T00:59:20;77607.25;;;-146.65;100.00
57094;BME280;42970;50.996;3.706;2022-11-20T01:01:45;77607.25;;;-146.65;100.00
57094;BME280;42970;50.996;3.706;2022-11-20T01:04:10;77617.34;;;-146.65;100.00
57094;BME280;42970;50.996;3.706;2022-11-20T01:06:36;77591.13;;;-146.65;100.00
57094;BME280;42970;50.996;3.706;2022-11-20T01:09:03;77607.25;;;-146.65;100.00
57094;BME280;42970;50.996;3.706;2022-11-20T01:11:30;77605.25;;;-146.65;100.00
57094;BME280;42970;50.996;3.706;2022-11-20T01:13:56;77605.25;;;-146.65;100.00
57094;BME280;42970;50.996;3.706;2022-11-20T01:16:23;77601.22;;;-146.65;100.00
57094;BME280;42970;50.996;3.706;2022-11-20T01:18:50;77570.94;;;-146.65;100.00
57094;BME280;42970;50.996;3.706;2022-11-20T01:21:16;77583.03;;;-146.65;100.00
57094;BME280;42970;50.996;3.706;2022-11-20T01:23:43;77554.78;;;-146.65;100.00
57094;BME280;42970;50.996;3.706;2022-11-20T01:26:11;77566.91;;;-146.65;100.00
57094;BME280;42970;50.996;3.706;2022-11-20T01:28:37;77568.91;;;-146.65;100.00
57094;BME280;42970;50.996;3.706;2022-11-20T01:33:48;77579.00;;;-146.65;100.00
57094;BME280;42970;50.996;3.706;2022-11-20T01:36:14;77589.09;;;-146.65;100.00
57094;BME280;42970;50.996;3.706;2022-11-20T01:38:40;77583.03;;;-146.65;100.00
57094;BME280;42970;50.996;3.706;2022-11-20T01:41:06;77577.00;;;-146.65;100.00
57094;BME280;42970;50.996;3.706;2022-11-20T01:43:31;77581.03;;;-146.65;100.00
57094;BME280;42970;50.996;3.706;2022-11-20T01:48:26;77583.03;;;-146.65;100.00
57094;BME280;42970;50.996;3.706;2022-11-20T01:50:52;77574.97;;;-146.65;100.00
57094;BME280;42970;50.996;3.706;2022-11-20T01:53:18;77579.00;;;-146.65;100.00
57094;BME280;42970;50.996;3.706;2022-11-20T01:55:47;77579.00;;;-146.65;100.00
57094;BME280;42970;50.996;3.706;2022-11-20T01:58:14;77566.91;;;-146.65;100.00
57094;BME280;42970;50.996;3.706;2022-11-20T02:00:40;77558.81;;;-146.65;100.00
57094;BME280;42970;50.996;3.706;2022-11-20T02:03:07;77558.81;;;-146.65;100.00
57094;BME280;42970;50.996;3.706;2022-11-20T02:05:35;77550.75;;;-146.65;100.00
57094;BME280;42970;50.996;3.706;2022-11-20T02:08:03;77568.91;;;-146.65;100.00
57094;BME280;42970;50.996;3.706;2022-11-20T02:10:29;77579.00;;;-146.65;100.00
57094;BME280;42970;50.996;3.706;2022-11-20T02:12:54;77585.06;;;-146.65;100.00
57094;BME280;42970;50.996;3.706;2022-11-20T02:15:39;77570.94;;;-146.65;100.00
57094;BME280;42970;50.996;3.706;2022-11-20T02:18:05;77597.16;;;-146.65;100.00
57094;BME280;42970;50.996;3.706;2022-11-20T02:20:30;77595.16;;;-146.65;100.00
57094;BME280;42970;50.996;3.706;2022-11-20T02:22:57;77587.09;;;-146.65;100.00
57094;BME280;42970;50.996;3.706;2022-11-20T02:25:24;77587.09;;;-146.65;100.00
57094;BME280;42970;50.996;3.706;2022-11-20T02:27:51;77581.03;;;-146.65;100.00
57094;BME280;42970;50.996;3.706;2022-11-20T02:30:16;77562.88;;;-146.65;100.00
57094;BME280;42970;50.996;3.706;2022-11-20T02:32:41;77558.81;;;-146.65;100.00
57094;BME280;42970;50.996;3.706;2022-11-20T02:37:45;77574.97;;;-146.65;100.00
57094;BME280;42970;50.996;3.706;2022-11-20T02:40:13;77574.97;;;-146.65;100.00
57094;BME280;42970;50.996;3.706;2022-11-20T02:42:38;77574.97;;;-146.65;100.00
57094;BME280;42970;50.996;3.706;2022-11-20T02:45:04;77570.94;;;-146.65;100.00
57094;BME280;42970;50.996;3.706;2022-11-20T02:47:30;77572.97;;;-146.65;100.00
57094;BME280;42970;50.996;3.706;2022-11-20T02:49:55;77558.81;;;-146.65;100.00
57094;BME280;42970;50.996;3.706;2022-11-20T02:52:21;77550.75;;;-146.65;100.00
57094;BME280;42970;50.996;3.706;2022-11-20T02:54:46;77536.63;;;-146.65;100.00
57094;BME280;42970;50.996;3.706;2022-11-20T02:57:11;77528.56;;;-146.65;100.00
57094;BME280;42970;50.996;3.706;2022-11-20T02:59:36;77526.53;;;-146.65;100.00
57094;BME280;42970;50.996;3.706;2022-11-20T03:02:02;77528.56;;;-146.65;100.00
57094;BME280;42970;50.996;3.706;2022-11-20T03:04:27;77524.53;;;-146.65;100.00
57094;BME280;42970;50.996;3.706;2022-11-20T03:06:52;77532.59;;;-146.65;100.00
57094;BME280;42970;50.996;3.706;2022-11-20T03:09:18;77526.53;;;-146.65;100.00
57094;BME280;42970;50.996;3.706;2022-11-20T03:11:43;77526.53;;;-146.65;100.00
57094;BME280;42970;50.996;3.706;2022-11-20T03:14:08;77524.53;;;-146.65;100.00
57094;BME280;42970;50.996;3.706;2022-11-20T03:16:33;77518.47;;;-146.65;100.00
57094;BME280;42970;50.996;3.706;2022-11-20T03:18:59;77518.47;;;-146.65;100.00
57094;BME280;42970;50.996;3.706;2022-11-20T03:21:24;77504.34;;;-146.65;100.00
57094;BME280;42970;50.996;3.706;2022-11-20T03:23:50;77498.28;;;-146.65;100.00
57094;BME280;42970;50.996;3.706;2022-11-20T03:26:19;77494.25;;;-146.65;100.00
57094;BME280;42970;50.996;3.706;2022-11-20T03:28:51;77488.19;;;-146.65;100.00
57094;BME280;42970;50.996;3.706;2022-11-20T03:31:18;77486.19;;;-146.65;100.00
57094;BME280;42970;50.996;3.706;2022-11-20T03:33:44;77478.09;;;-146.65;100.00
57094;BME280;42970;50.996;3.706;2022-11-20T03:36:10;77486.19;;;-146.65;100.00
57094;BME280;42970;50.996;3.706;2022-11-20T03:38:36;77486.19;;;-146.65;100.00
57094;BME280;42970;50.996;3.706;2022-11-20T03:41:02;77496.28;;;-146.65;100.00
57094;BME280;42970;50.996;3.706;2022-11-20T03:43:28;77484.16;;;-146.65;100.00
57094;BME280;42970;50.996;3.706;2022-11-20T03:45:53;77486.19;;;-146.65;100.00
57094;BME280;42970;50.996;3.706;2022-11-20T03:48:19;77494.25;;;-146.65;100.00
57094;BME280;42970;50.996;3.706;2022-11-20T03:50:44;77500.31;;;-146.65;100.00
57094;BME280;42970;50.996;3.706;2022-11-20T03:53:12;77502.31;;;-146.65;100.00
57094;BME280;42970;50.996;3.706;2022-11-20T03:55:37;77496.28;;;-146.65;100.00
57094;BME280;42970;50.996;3.706;2022-11-20T03:58:03;77484.16;;;-146.65;100.00
57094;BME280;42970;50.996;3.706;2022-11-20T04:00:28;77470.03;;;-146.65;100.00
57094;BME280;42970;50.996;3.706;2022-11-20T04:02:53;77474.06;;;-146.65;100.00
57094;BME280;42970;50.996;3.706;2022-11-20T04:05:18;77476.09;;;-146.65;100.00
57094;BME280;42970;50.996;3.706;2022-11-20T04:07:44;77480.13;;;-146.65;100.00
57094;BME280;42970;50.996;3.706;2022-11-20T04:10:09;77478.09;;;-146.65;100.00
57094;BME280;42970;50.996;3.706;2022-11-20T04:12:35;77466.00;;;-146.65;100.00
57094;BME280;42970;50.996;3.706;2022-11-20T04:15:00;77472.06;;;-146.65;100.00
57094;BME280;42970;50.996;3.706;2022-11-20T04:17:25;77478.09;;;-146.65;100.00
57094;BME280;42970;50.996;3.706;2022-11-20T04:19:51;77461.97;;;-146.65;100.00
57094;BME280;42970;50.996;3.706;2022-11-20T04:22:16;77449.84;;;-146.65;100.00
57094;BME280;42970;50.996;3.706;2022-11-20T04:24:41;77449.84;;;-146.65;100.00
57094;BME280;42970;50.996;3.706;2022-11-20T04:27:07;77445.81;;;-146.65;100.00
57094;BME280;42970;50.996;3.706;2022-11-20T04:29:32;77443.81;;;-146.65;100.00
57094;BME280;42970;50.996;3.706;2022-11-20T04:31:57;77439.75;;;-146.65;100.00
57094;BME280;42970;50.996;3.706;2022-11-20T04:34:22;77449.84;;;-146.65;100.00
57094;BME280;42970;50.996;3.706;2022-11-20T04:36:48;77445.81;;;-146.65;100.00
57094;BME280;42970;50.996;3.706;2022-11-20T04:39:14;77451.88;;;-146.65;100.00
57094;BME280;42970;50.996;3.706;2022-11-20T04:41:40;77463.97;;;-146.65;100.00
57094;BME280;42970;50.996;3.706;2022-11-20T04:44:06;77457.94;;;-146.65;100.00
57094;BME280;42970;50.996;3.706;2022-11-20T04:46:32;77451.88;;;-146.65;100.00
57094;BME280;42970;50.996;3.706;2022-11-20T04:48:58;77425.63;;;-146.65;100.00
57094;BME280;42970;50.996;3.706;2022-11-20T04:51:24;77435.72;;;-146.65;100.00
57094;BME280;42970;50.996;3.706;2022-11-20T04:53:50;77423.63;;;-146.65;100.00
57094;BME280;42970;50.996;3.706;2022-11-20T04:56:16;77411.50;;;-146.65;100.00
57094;BME280;42970;50.996;3.706;2022-11-20T04:58:41;77417.56;;;-146.65;100.00
57094;BME280;42970;50.996;3.706;2022-11-20T05:01:08;77433.72;;;-146.65;100.00
57094;BME280;42970;50.996;3.706;2022-11-20T05:03:34;77449.84;;;-146.65;100.00
57094;BME280;42970;50.996;3.706;2022-11-20T05:06:00;77435.72;;;-146.65;100.00
57094;BME280;42970;50.996;3.706;2022-11-20T05:08:26;77439.75;;;-146.65;100.00
57094;BME280;42970;50.996;3.706;2022-11-20T05:10:51;77441.78;;;-146.65;100.00
57094;BME280;42970;50.996;3.706;2022-11-20T05:13:16;77429.66;;;-146.65;100.00
57094;BME280;42970;50.996;3.706;2022-11-20T05:15:41;77413.53;;;-146.65;100.00
57094;BME280;42970;50.996;3.706;2022-11-20T05:18:07;77409.50;;;-146.65;100.00
57094;BME280;42970;50.996;3.706;2022-11-20T05:20:32;77399.41;;;-146.65;100.00
57094;BME280;42970;50.996;3.706;2022-11-20T05:22:57;77401.41;;;-146.65;100.00
57094;BME280;42970;50.996;3.706;2022-11-20T05:25:23;77385.28;;;-146.65;100.00
57094;BME280;42970;50.996;3.706;2022-11-20T05:27:48;77397.38;;;-146.65;100.00
57094;BME280;42970;50.996;3.706;2022-11-20T05:30:13;77397.38;;;-146.65;100.00
57094;BME280;42970;50.996;3.706;2022-11-20T05:32:39;77413.53;;;-146.65;100.00
57094;BME280;42970;50.996;3.706;2022-11-20T05:35:04;77399.41;;;-146.65;100.00
57094;BME280;42970;50.996;3.706;2022-11-20T05:37:29;77391.34;;;-146.65;100.00
57094;BME280;42970;50.996;3.706;2022-11-20T05:39:55;77391.34;;;-146.65;100.00
57094;BME280;42970;50.996;3.706;2022-11-20T05:42:20;77397.38;;;-146.65;100.00
57094;BME280;42970;50.996;3.706;2022-11-20T05:44:58;77401.41;;;-146.65;100.00
57094;BME280;42970;50.996;3.706;2022-11-20T05:47:23;77409.50;;;-146.65;100.00
57094;BME280;42970;50.996;3.706;2022-11-20T05:49:49;77409.50;;;-146.65;100.00
57094;BME280;42970;50.996;3.706;2022-11-20T05:52:14;77407.47;;;-146.65;100.00
57094;BME280;42970;50.996;3.706;2022-11-20T05:54:39;77405.47;;;-146.65;100.00
57094;BME280;42970;50.996;3.706;2022-11-20T05:57:05;77403.44;;;-146.65;100.00
57094;BME280;42970;50.996;3.706;2022-11-20T05:59:30;77401.41;;;-146.65;100.00
57094;BME280;42970;50.996;3.706;2022-11-20T06:01:55;77391.34;;;-146.65;100.00
57094;BME280;42970;50.996;3.706;2022-11-20T06:04:21;77393.34;;;-146.65;100.00
57094;BME280;42970;50.996;3.706;2022-11-20T06:06:46;77389.31;;;-146.65;100.00
57094;BME280;42970;50.996;3.706;2022-11-20T06:09:11;77393.34;;;-146.65;100.00
57094;BME280;42970;50.996;3.706;2022-11-20T06:11:36;77383.25;;;-146.65;100.00
57094;BME280;42970;50.996;3.706;2022-11-20T06:14:20;77381.25;;;-146.65;100.00
57094;BME280;42970;50.996;3.706;2022-11-20T06:16:45;77367.13;;;-146.65;100.00
57094;BME280;42970;50.996;3.706;2022-11-20T06:19:10;77373.16;;;-146.65;100.00
57094;BME280;42970;50.996;3.706;2022-11-20T06:21:35;77385.28;;;-146.65;100.00
57094;BME280;42970;50.996;3.706;2022-11-20T06:24:01;77361.06;;;-146.65;100.00
57094;BME280;42970;50.996;3.706;2022-11-20T06:26:26;77359.03;;;-146.65;100.00
57094;BME280;42970;50.996;3.706;2022-11-20T06:28:52;77357.03;;;-146.65;100.00
57094;BME280;42970;50.996;3.706;2022-11-20T06:31:19;77348.94;;;-146.65;100.00
57094;BME280;42970;50.996;3.706;2022-11-20T06:33:45;77342.91;;;-146.65;100.00
57094;BME280;42970;50.996;3.706;2022-11-20T06:36:11;77336.84;;;-146.65;100.00
57094;BME280;42970;50.996;3.706;2022-11-20T06:38:37;77355.00;;;-146.65;100.00
57094;BME280;42970;50.996;3.706;2022-11-20T06:41:03;77348.94;;;-146.65;100.00
57094;BME280;42970;50.996;3.706;2022-11-20T06:43:29;77355.00;;;-146.65;100.00
57094;BME280;42970;50.996;3.706;2022-11-20T06:45:55;77350.97;;;-146.65;100.00
57094;BME280;42970;50.996;3.706;2022-11-20T06:48:20;77353.00;;;-146.65;100.00
57094;BME280;42970;50.996;3.706;2022-11-20T06:50:46;77334.81;;;-146.65;100.00
57094;BME280;42970;50.996;3.706;2022-11-20T06:53:11;77340.88;;;-146.65;100.00
57094;BME280;42970;50.996;3.706;2022-11-20T06:55:36;77320.69;;;-146.65;100.00
57094;BME280;42970;50.996;3.706;2022-11-20T06:58:02;77328.78;;;-146.65;100.00
57094;BME280;42970;50.996;3.706;2022-11-20T07:00:27;77324.75;;;-146.65;100.00
57094;BME280;42970;50.996;3.706;2022-11-20T07:02:52;77332.81;;;-146.65;100.00
57094;BME280;42970;50.996;3.706;2022-11-20T07:05:18;77326.75;;;-146.65;100.00
57094;BME280;42970;50.996;3.706;2022-11-20T07:07:43;77324.75;;;-146.65;100.00
57094;BME280;42970;50.996;3.706;2022-11-20T07:10:09;77320.69;;;-146.65;100.00
57094;BME280;42970;50.996;3.706;2022-11-20T07:12:34;77312.63;;;-146.65;100.00
57094;BME280;42970;50.996;3.706;2022-11-20T07:15:00;77310.63;;;-146.65;100.00
57094;BME280;42970;50.996;3.706;2022-11-20T07:17:25;77320.69;;;-146.65;100.00
57094;BME280;42970;50.996;3.706;2022-11-20T07:19:51;77324.75;;;-146.65;100.00
57094;BME280;42970;50.996;3.706;2022-11-20T07:22:16;77312.63;;;-146.65;100.00
57094;BME280;42970;50.996;3.706;2022-11-20T07:24:41;77304.56;;;-146.65;100.00
57094;BME280;42970;50.996;3.706;2022-11-20T07:27:06;77294.47;;;-146.65;100.00
57094;BME280;42970;50.996;3.706;2022-11-20T07:29:32;77304.56;;;-146.65;100.00
57094;BME280;42970;50.996;3.706;2022-11-20T07:31:57;77292.44;;;-146.65;100.00
57094;BME280;42970;50.996;3.706;2022-11-20T07:34:22;77292.44;;;-146.65;100.00
57094;BME280;42970;50.996;3.706;2022-11-20T07:36:48;77288.41;;;-146.65;100.00
57094;BME280;42970;50.996;3.706;2022-11-20T07:39:13;77292.44;;;-146.65;100.00
57094;BME280;42970;50.996;3.706;2022-11-20T07:41:38;77292.44;;;-146.65;100.00
57094;BME280;42970;50.996;3.706;2022-11-20T07:44:04;77272.28;;;-146.65;100.00
57094;BME280;42970;50.996;3.706;2022-11-20T07:46:29;77272.28;;;-146.65;100.00
57094;BME280;42970;50.996;3.706;2022-11-20T07:48:54;77262.19;;;-146.65;100.00
57094;BME280;42970;50.996;3.706;2022-11-20T07:51:20;77252.09;;;-146.65;100.00
57094;BME280;42970;50.996;3.706;2022-11-20T07:53:45;77256.13;;;-146.65;100.00
57094;BME280;42970;50.996;3.706;2022-11-20T07:56:10;77242.00;;;-146.65;100.00
57094;BME280;42970;50.996;3.706;2022-11-20T07:58:36;77240.00;;;-146.65;100.00
57094;BME280;42970;50.996;3.706;2022-11-20T08:01:04;77240.00;;;-146.65;100.00
57094;BME280;42970;50.996;3.706;2022-11-20T08:03:30;77240.00;;;-146.65;100.00
57094;BME280;42970;50.996;3.706;2022-11-20T08:05:58;77221.81;;;-146.65;100.00
57094;BME280;42970;50.996;3.706;2022-11-20T08:08:23;77235.94;;;-146.65;100.00
57094;BME280;42970;50.996;3.706;2022-11-20T08:10:48;77227.88;;;-146.65;100.00
57094;BME280;42970;50.996;3.706;2022-11-20T08:13:14;77223.84;;;-146.65;100.00
57094;BME280;42970;50.996;3.706;2022-11-20T08:15:57;77217.78;;;-146.65;100.00
57094;BME280;42970;50.996;3.706;2022-11-20T08:18:23;77207.69;;;-146.65;100.00
57094;BME280;42970;50.996;3.706;2022-11-20T08:20:48;77211.75;;;-146.65;100.00
57094;BME280;42970;50.996;3.706;2022-11-20T08:23:13;77211.75;;;-146.65;100.00
57094;BME280;42970;50.996;3.706;2022-11-20T08:25:39;77205.69;;;-146.65;100.00
57094;BME280;42970;50.996;3.706;2022-11-20T08:28:05;77203.66;;;-146.65;100.00
57094;BME280;42970;50.996;3.706;2022-11-20T08:30:31;77209.72;;;-146.65;100.00
57094;BME280;42970;50.996;3.706;2022-11-20T08:33:00;77207.69;;;-146.65;100.00
57094;BME280;42970;50.996;3.706;2022-11-20T08:35:26;77195.59;;;-146.65;100.00
57094;BME280;42970;50.996;3.706;2022-11-20T08:37:51;77189.53;;;-146.65;100.00
57094;BME280;42970;50.996;3.706;2022-11-20T08:40:16;77185.50;;;-146.65;100.00
57094;BME280;42970;50.996;3.706;2022-11-20T08:42:51;77183.47;;;-146.65;100.00
57094;BME280;42970;50.996;3.706;2022-11-20T08:45:17;77185.50;;;-146.65;100.00
57094;BME280;42970;50.996;3.706;2022-11-20T08:47:42;77179.44;;;-146.65;100.00
57094;BME280;42970;50.996;3.706;2022-11-20T08:50:08;77179.44;;;-146.65;100.00
57094;BME280;42970;50.996;3.706;2022-11-20T08:52:34;77151.19;;;-146.65;100.00
57094;BME280;42970;50.996;3.706;2022-11-20T08:54:59;77165.31;;;-146.65;100.00
57094;BME280;42970;50.996;3.706;2022-11-20T08:57:24;77151.19;;;-146.65;100.00
57094;BME280;42970;50.996;3.706;2022-11-20T08:59:50;77151.19;;;-146.65;100.00
57094;BME280;42970;50.996;3.706;2022-11-20T09:02:15;77153.22;;;-146.65;100.00
57094;BME280;42970;50.996;3.706;2022-11-20T09:04:40;77143.13;;;-146.65;100.00
57094;BME280;42970;50.996;3.706;2022-11-20T09:07:05;77131.03;;;-146.65;100.00
57094;BME280;42970;50.996;3.706;2022-11-20T09:09:31;77124.97;;;-146.65;100.00
57094;BME280;42970;50.996;3.706;2022-11-20T09:11:57;77110.84;;;-146.65;100.00
57094;BME280;42970;50.996;3.706;2022-11-20T09:14:22;77098.72;;;-146.65;100.00
57094;BME280;42970;50.996;3.706;2022-11-20T09:16:53;77088.66;;;-146.65;100.00
57094;BME280;42970;50.996;3.706;2022-11-20T09:19:19;77072.50;;;-146.65;100.00
57094;BME280;42970;50.996;3.706;2022-11-20T09:21:44;77078.56;;;-146.65;100.00
57094;BME280;42970;50.996;3.706;2022-11-20T09:24:10;77050.31;;;-146.65;100.00
57094;BME280;42970;50.996;3.706;2022-11-20T09:26:35;77036.19;;;-146.65;100.00
57094;BME280;42970;50.996;3.706;2022-11-20T09:29:00;77046.28;;;-146.65;100.00
57094;BME280;42970;50.996;3.706;2022-11-20T09:31:26;77036.19;;;-146.65;100.00
57094;BME280;42970;50.996;3.706;2022-11-20T09:33:51;77038.19;;;-146.65;100.00
57094;BME280;42970;50.996;3.706;2022-11-20T09:36:16;77026.09;;;-146.65;100.00
57094;BME280;42970;50.996;3.706;2022-11-20T09:38:44;77018.03;;;-146.65;100.00
57094;BME280;42970;50.996;3.706;2022-11-20T09:41:21;77011.97;;;-146.65;100.00
57094;BME280;42970;50.996;3.706;2022-11-20T09:44:09;76997.84;;;-146.65;100.00
57094;BME280;42970;50.996;3.706;2022-11-20T09:54:37;76917.13;;;-146.65;100.00
57094;BME280;42970;50.996;3.706;2022-11-20T09:57:14;76894.94;;;-146.65;100.00
57094;BME280;42970;50.996;3.706;2022-11-20T10:09:57;76786.00;;;-146.65;100.00
57094;BME280;42970;50.996;3.706;2022-11-20T10:12:36;76781.94;;;-146.65;100.00
57094;BME280;42970;50.996;3.706;2022-11-20T10:17:50;76779.94;;;-146.65;100.00
57094;BME280;42970;50.996;3.706;2022-11-20T10:28:30;76759.75;;;-146.65;100.00
57094;BME280;42970;50.996;3.706;2022-11-20T10:31:00;76749.66;;;-146.65;100.00
57094;BME280;42970;50.996;3.706;2022-11-20T10:33:29;76737.56;;;-146.65;100.00
57094;BME280;42970;50.996;3.706;2022-11-20T10:36:09;76719.41;;;-146.65;100.00
57094;BME280;42970;50.996;3.706;2022-11-20T10:38:37;76713.34;;;-146.65;100.00
57094;BME280;42970;50.996;3.706;2022-11-20T10:41:03;76693.19;;;-146.65;100.00
57094;BME280;42970;50.996;3.706;2022-11-20T10:43:50;76687.13;;;-146.65;100.00
57094;BME280;42970;50.996;3.706;2022-11-20T10:46:18;76699.22;;;-146.65;100.00
57094;BME280;42970;50.996;3.706;2022-11-20T10:48:45;76695.19;;;-146.65;100.00
57094;BME280;42970;50.996;3.706;2022-11-20T10:51:19;76677.03;;;-146.65;100.00
57094;BME280;42970;50.996;3.706;2022-11-20T10:59:21;76640.72;;;-146.65;100.00
57094;BME280;42970;50.996;3.706;2022-11-20T11:01:51;76632.66;;;-146.65;100.00
57094;BME280;42970;50.996;3.706;2022-11-20T11:06:54;76634.66;;;-146.65;100.00
57094;BME280;42970;50.996;3.706;2022-11-20T11:09:26;76634.66;;;-146.65;100.00
57094;BME280;42970;50.996;3.706;2022-11-20T11:11:54;76642.72;;;-146.65;100.00
57094;BME280;42970;50.996;3.706;2022-11-20T11:14:20;76626.59;;;-146.65;100.00
57094;BME280;42970;50.996;3.706;2022-11-20T11:16:49;76646.75;;;-146.65;100.00
57094;BME280;42970;50.996;3.706;2022-11-20T11:19:15;76638.69;;;-146.65;100.00
57094;BME280;42970;50.996;3.706;2022-11-20T11:21:47;76624.56;;;-146.65;100.00
57094;BME280;42970;50.996;3.706;2022-11-20T11:24:18;76630.63;;;-146.65;100.00
57094;BME280;42970;50.996;3.706;2022-11-20T11:26:50;76646.75;;;-146.65;100.00
57094;BME280;42970;50.996;3.706;2022-11-20T11:29:17;76638.69;;;-146.65;100.00
57094;BME280;42970;50.996;3.706;2022-11-20T11:31:42;76670.97;;;-146.65;100.00
57094;BME280;42970;50.996;3.706;2022-11-20T11:34:11;76681.06;;;-146.65;100.00
57094;BME280;42970;50.996;3.706;2022-11-20T11:36:37;76697.22;;;-146.65;100.00
57094;BME280;42970;50.996;3.706;2022-11-20T11:39:03;76703.25;;;-146.65;100.00
57094;BME280;42970;50.996;3.706;2022-11-20T11:41:31;76701.25;;;-146.65;100.00
57094;BME280;42970;50.996;3.706;2022-11-20T11:47:03;76717.38;;;-146.65;100.00
57094;BME280;42970;50.996;3.706;2022-11-20T11:49:28;76723.44;;;-146.65;100.00
57094;BME280;42970;50.996;3.706;2022-11-20T11:52:05;76725.47;;;-146.65;100.00
57094;BME280;42970;50.996;3.706;2022-11-20T11:54:39;76725.47;;;-146.65;100.00
57094;BME280;42970;50.996;3.706;2022-11-20T11:57:12;76723.44;;;-146.65;100.00
57094;BME280;42970;50.996;3.706;2022-11-20T11:59:54;76715.38;;;-146.65;100.00
57094;BME280;42970;50.996;3.706;2022-11-20T12:02:29;76711.34;;;-146.65;100.00
57094;BME280;42970;50.996;3.706;2022-11-20T12:04:58;76711.34;;;-146.65;100.00
57094;BME280;42970;50.996;3.706;2022-11-20T12:13:15;76693.19;;;-146.65;100.00
57094;BME280;42970;50.996;3.706;2022-11-20T12:15:44;76687.13;;;-146.65;100.00
57094;BME280;42970;50.996;3.706;2022-11-20T12:18:14;76681.06;;;-146.65;100.00
57094;BME280;42970;50.996;3.706;2022-11-20T12:20:41;76677.03;;;-146.65;100.00
57094;BME280;42970;50.996;3.706;2022-11-20T12:23:16;76677.03;;;-146.65;100.00
57094;BME280;42970;50.996;3.706;2022-11-20T12:25:44;76668.97;;;-146.65;100.00
57094;BME280;42970;50.996;3.706;2022-11-20T12:31:02;76664.94;;;-146.65;100.00
57094;BME280;42970;50.996;3.706;2022-11-20T12:44:31;76606.41;;;-146.65;100.00
57094;BME280;42970;50.996;3.706;2022-11-20T12:52:42;76590.28;;;-146.65;100.00
57094;BME280;42970;50.996;3.706;2022-11-20T12:55:13;76606.41;;;-146.65;100.00
57094;BME280;42970;50.996;3.706;2022-11-20T13:05:11;76570.09;;;-146.65;100.00
57094;BME280;42970;50.996;3.706;2022-11-20T13:07:38;76562.03;;;-146.65;100.00
57094;BME280;42970;50.996;3.706;2022-11-20T13:10:04;76560.00;;;-146.65;100.00
57094;BME280;42970;50.996;3.706;2022-11-20T13:12:40;76566.06;;;-146.65;100.00
57094;BME280;42970;50.996;3.706;2022-11-20T13:17:58;76543.88;;;-146.65;100.00
57094;BME280;42970;50.996;3.706;2022-11-20T13:20:24;76543.88;;;-146.65;100.00
57094;BME280;42970;50.996;3.706;2022-11-20T13:22:50;76545.88;;;-146.65;100.00
57094;BME280;42970;50.996;3.706;2022-11-20T13:25:28;76535.81;;;-146.65;100.00
57094;BME280;42970;50.996;3.706;2022-11-20T13:27:55;76531.75;;;-146.65;100.00
57094;BME280;42970;50.996;3.706;2022-11-20T13:30:22;76533.78;;;-146.65;100.00
57094;BME280;42970;50.996;3.706;2022-11-20T13:32:48;76529.75;;;-146.65;100.00
57094;BME280;42970;50.996;3.706;2022-11-20T13:35:22;76523.69;;;-146.65;100.00
57094;BME280;42970;50.996;3.706;2022-11-20T13:37:48;76525.72;;;-146.65;100.00
57094;BME280;42970;50.996;3.706;2022-11-20T13:40:23;76523.69;;;-146.65;100.00
57094;BME280;42970;50.996;3.706;2022-11-20T13:43:00;76509.56;;;-146.65;100.00
57094;BME280;42970;50.996;3.706;2022-11-20T13:45:27;76499.50;;;-146.65;100.00
57094;BME280;42970;50.996;3.706;2022-11-20T13:47:53;76493.44;;;-146.65;100.00
57094;BME280;42970;50.996;3.706;2022-11-20T13:50:19;76491.41;;;-146.65;100.00
57094;BME280;42970;50.996;3.706;2022-11-20T13:52:59;76489.41;;;-146.65;100.00
57094;BME280;42970;50.996;3.706;2022-11-20T14:00:29;76477.28;;;-146.65;100.00